createdAt,value
2022-08-27T00:00:59.472Z,97941.19
2022-08-27T00:03:50.422Z,97946.38
2022-08-27T00:06:39.728Z,97946.38
2022-08-27T00:09:29.921Z,97952.19
2022-08-27T00:12:21.087Z,97954.25
2022-08-27T00:15:12.839Z,97953.22
2022-08-27T00:18:07.324Z,97950.97
2022-08-27T00:20:57.994Z,97955.28
2022-08-27T00:23:47.701Z,97959.84
2022-08-27T00:26:41.410Z,97968.56
2022-08-27T00:29:32.430Z,97975.41
2022-08-27T00:32:21.718Z,97966.91
2022-08-27T00:35:14.090Z,97973.72
2022-08-27T00:38:05.437Z,97976.63
2022-08-27T00:40:55.346Z,97978.53
2022-08-27T00:43:49.622Z,97979.16
2022-08-27T00:46:44.473Z,97975.84
2022-08-27T00:49:42.073Z,97972.50
2022-08-27T00:52:35.211Z,97984.13
2022-08-27T00:55:36.815Z,97979.16
2022-08-27T00:58:31.274Z,97979.59
2022-08-27T01:01:26.178Z,97982.44
2022-08-27T01:04:15.866Z,97983.09
2022-08-27T01:07:07.010Z,97993.03
2022-08-27T01:10:00.574Z,97982.28
2022-08-27T01:12:54.153Z,97990.97
2022-08-27T01:15:44.486Z,98000.28
2022-08-27T01:18:38.404Z,97993.22
2022-08-27T01:21:36.144Z,97992.38
2022-08-27T01:24:40.779Z,97987.63
2022-08-27T01:27:32.427Z,97983.72
2022-08-27T01:30:23.649Z,97998.41
2022-08-27T01:33:19.057Z,97995.91
2022-08-27T01:36:09.122Z,97991.16
2022-08-27T01:38:58.569Z,97994.47
2022-08-27T01:41:49.143Z,97996.97
2022-08-27T01:44:51.132Z,97992.84
2022-08-27T01:47:40.966Z,98002.13
2022-08-27T01:50:36.200Z,98002.75
2022-08-27T01:53:27.375Z,98005.28
2022-08-27T01:56:16.785Z,98009.41
2022-08-27T01:59:07.554Z,97999.91
2022-08-27T02:01:57.735Z,97999.91
2022-08-27T02:04:46.998Z,98006.28
2022-08-27T02:07:37.047Z,98002.59
2022-08-27T02:10:31.919Z,98001.34
2022-08-27T02:13:21.113Z,98004.03
2022-08-27T02:16:12.263Z,98001.53
2022-08-27T02:19:01.876Z,98014.38
2022-08-27T02:21:52.587Z,98014.56
2022-08-27T02:24:42.083Z,98017.31
2022-08-27T02:27:31.289Z,98021.22
2022-08-27T02:30:24.636Z,98025.56
2022-08-27T02:33:15.421Z,98023.69
2022-08-27T02:36:06.110Z,98020.19
2022-08-27T02:38:56.547Z,98020.78
2022-08-27T02:41:45.691Z,98028.91
2022-08-27T02:44:35.569Z,98012.94
2022-08-27T02:47:24.858Z,98017.31
2022-08-27T02:50:16.428Z,98016.91
2022-08-27T02:53:07.384Z,98012.34
2022-08-27T02:55:57.326Z,98002.19
2022-08-27T02:58:46.509Z,98001.16
2022-08-27T03:01:38.327Z,98000.13
2022-08-27T03:04:29.284Z,97992.66
2022-08-27T03:07:20.163Z,97991.25
2022-08-27T03:10:13.878Z,97994.09
2022-08-27T03:13:03.150Z,97985.84
2022-08-27T03:15:52.375Z,97986.69
2022-08-27T03:18:41.786Z,97982.97
2022-08-27T03:21:31.162Z,97980.88
2022-08-27T03:24:21.662Z,97974.69
2022-08-27T03:27:11.476Z,97971.81
2022-08-27T03:30:04.087Z,97969.09
2022-08-27T03:32:54.290Z,97973.88
2022-08-27T03:35:43.854Z,97963.50
2022-08-27T03:38:33.255Z,97966.00
2022-08-27T03:41:24.526Z,97961.88
2022-08-27T03:44:33.698Z,97962.44
2022-08-27T03:47:23.748Z,97970.94
2022-08-27T03:50:12.956Z,97968.88
2022-08-27T03:53:02.296Z,97977.41
2022-08-27T03:55:51.562Z,97976.34
2022-08-27T03:58:43.008Z,97982.97
2022-08-27T04:01:32.751Z,97985.44
2022-08-27T04:04:23.733Z,97981.31
2022-08-27T04:07:13.229Z,97986.06
2022-08-27T04:10:02.576Z,97985.25
2022-08-27T04:12:52.053Z,97986.47
2022-08-27T04:15:48.538Z,97987.53
2022-08-27T04:18:38.648Z,97989.19
2022-08-27T04:21:27.893Z,97985.25
2022-08-27T04:24:17.435Z,97989.59
2022-08-27T04:27:07.152Z,97989.41
2022-08-27T04:29:56.990Z,97995.41
2022-08-27T04:32:47.571Z,97993.75
2022-08-27T04:35:36.928Z,97994.97
2022-08-27T04:38:26.216Z,97994.16
2022-08-27T04:41:22.262Z,97985.06
2022-08-27T04:44:12.659Z,97983.63
2022-08-27T04:47:05.828Z,97976.59
2022-08-27T04:49:56.285Z,97975.53
2022-08-27T04:52:46.367Z,97969.97
2022-08-27T04:55:43.531Z,97968.06
2022-08-27T04:58:33.021Z,97974.09
2022-08-27T05:01:26.498Z,97973.66
2022-08-27T05:04:19.613Z,97982.97
2022-08-27T05:07:11.344Z,97976.78
2022-08-27T05:10:00.478Z,97974.69
2022-08-27T05:12:50.140Z,97979.44
2022-08-27T05:15:40.736Z,97978.38
2022-08-27T05:18:33.316Z,97976.75
2022-08-27T05:21:28.708Z,97978.16
2022-08-27T05:24:19.723Z,97978.16
2022-08-27T05:27:09.885Z,97984.19
2022-08-27T05:30:02.339Z,97991.38
2022-08-27T05:32:51.545Z,97995.31
2022-08-27T05:35:43.439Z,97990.34
2022-08-27T05:38:33.927Z,97983.72
2022-08-27T05:41:33.717Z,97986.63
2022-08-27T05:44:40.703Z,97982.03
2022-08-27T05:47:30.895Z,97976.69
2022-08-27T05:50:23.578Z,97978.31
2022-08-27T05:53:14.870Z,97977.06
2022-08-27T05:56:04.830Z,97979.94
2022-08-27T05:59:13.218Z,97985.09
2022-08-27T06:02:02.488Z,97978.25
2022-08-27T06:04:52.079Z,97981.31
2022-08-27T06:07:41.500Z,97981.31
2022-08-27T06:10:30.912Z,97987.69
2022-08-27T06:13:21.033Z,97991.38
2022-08-27T06:16:18.198Z,98001.28
2022-08-27T06:19:08.857Z,98005.47
2022-08-27T06:22:09.980Z,98004.81
2022-08-27T06:24:59.958Z,98004.63
2022-08-27T06:27:49.138Z,98000.44
2022-08-27T06:30:38.354Z,97991.94
2022-08-27T06:33:28.888Z,97986.72
2022-08-27T06:36:21.777Z,97991.63
2022-08-27T06:39:13.776Z,97995.75
2022-08-27T06:42:04.024Z,98000.88
2022-08-27T06:44:54.350Z,98001.94
2022-08-27T06:47:43.602Z,98008.53
2022-08-27T06:50:40.336Z,98007.72
2022-08-27T06:53:29.645Z,98010.97
2022-08-27T06:56:19.608Z,98010.75
2022-08-27T06:59:12.654Z,98001.78
2022-08-27T07:02:01.918Z,98005.06
2022-08-27T07:04:53.793Z,98002.53
2022-08-27T07:07:48.917Z,98005.44
2022-08-27T07:10:39.149Z,98015.78
2022-08-27T07:13:29.965Z,98013.66
2022-08-27T07:16:23.313Z,97999.53
2022-08-27T07:19:13.182Z,97997.00
2022-08-27T07:22:02.554Z,98000.69
2022-08-27T07:24:53.774Z,97995.59
2022-08-27T07:27:43.796Z,98002.81
2022-08-27T07:30:33.383Z,98015.84
2022-08-27T07:33:22.870Z,98011.66
2022-08-27T07:36:12.953Z,98026.97
2022-08-27T07:39:02.439Z,98014.66
2022-08-27T07:42:10.623Z,98018.84
2022-08-27T07:45:00.080Z,98026.88
2022-08-27T07:47:51.789Z,98026.13
2022-08-27T07:50:41.104Z,98027.56
2022-08-27T07:53:30.339Z,98031.41
2022-08-27T07:56:20.324Z,98021.78
2022-08-27T07:59:12.387Z,98025.22
2022-08-27T08:02:01.862Z,98019.38
2022-08-27T08:04:51.293Z,98019.53
2022-08-27T08:07:40.911Z,98026.75
2022-08-27T08:10:34.932Z,98025.44
2022-08-27T08:13:24.652Z,98026.88
2022-08-27T08:16:16.004Z,98019.38
2022-08-27T08:19:05.441Z,98019.50
2022-08-27T08:21:59.429Z,98030.00
2022-08-27T08:24:49.797Z,98033.47
2022-08-27T08:27:39.485Z,98029.88
2022-08-27T08:30:31.298Z,98030.38
2022-08-27T08:33:27.739Z,98030.75
2022-08-27T08:36:18.969Z,98034.78
2022-08-27T08:39:08.491Z,98042.31
2022-08-27T08:42:02.884Z,98046.44
2022-08-27T08:44:54.034Z,98037.19
2022-08-27T08:47:48.228Z,98036.03
2022-08-27T08:50:52.270Z,98032.50
2022-08-27T08:53:53.107Z,98022.66
2022-08-27T08:56:58.377Z,98018.59
2022-08-27T08:59:58.101Z,98019.63
2022-08-27T09:02:55.495Z,98026.13
2022-08-27T09:05:56.835Z,98026.72
2022-08-27T09:08:47.756Z,98031.78
2022-08-27T09:11:46.649Z,98037.22
2022-08-27T09:14:46.341Z,98029.88
2022-08-27T09:17:36.369Z,98032.59
2022-08-27T09:20:25.949Z,98027.50
2022-08-27T09:23:27.972Z,98027.59
2022-08-27T09:26:30.516Z,98027.53
2022-08-27T09:29:20.914Z,98031.59
2022-08-27T09:32:11.516Z,98025.81
2022-08-27T09:35:05.757Z,98023.56
2022-08-27T09:37:57.825Z,98025.13
2022-08-27T09:40:53.362Z,98023.19
2022-08-27T09:43:43.808Z,98025.75
2022-08-27T09:46:33.101Z,98027.75
2022-08-27T09:49:24.219Z,98023.94
2022-08-27T09:52:37.729Z,98027.00
2022-08-27T09:55:32.127Z,98026.75
2022-08-27T09:58:28.734Z,98031.19
2022-08-27T10:01:21.503Z,98029.88
2022-08-27T10:04:14.965Z,98019.34
2022-08-27T10:07:25.216Z,98018.94
2022-08-27T10:10:22.321Z,98021.84
2022-08-27T10:13:19.579Z,98012.97
2022-08-27T10:16:42.716Z,98022.50
2022-08-27T10:19:51.216Z,98021.34
2022-08-27T10:22:53.535Z,98020.16
2022-08-27T10:25:58.943Z,98017.81
2022-08-27T10:29:06.932Z,98017.06
2022-08-27T10:32:16.525Z,98020.13
2022-08-27T10:35:16.478Z,98015.25
2022-08-27T10:38:18.954Z,98023.72
2022-08-27T10:41:18.803Z,98019.94
2022-08-27T10:44:47.344Z,98026.69
2022-08-27T10:48:03.105Z,98020.94
2022-08-27T10:51:02.152Z,98031.25
2022-08-27T10:54:05.197Z,98023.59
2022-08-27T10:57:26.591Z,98024.09
2022-08-27T11:00:19.726Z,98014.84
2022-08-27T11:03:15.053Z,98019.25
2022-08-27T11:06:15.633Z,98020.13
2022-08-27T11:09:15.080Z,98014.94
2022-08-27T11:12:14.817Z,98021.50
2022-08-27T11:15:13.198Z,98017.22
2022-08-27T11:18:09.854Z,98008.56
2022-08-27T11:21:06.910Z,98008.63
2022-08-27T11:24:03.461Z,98004.84
2022-08-27T11:27:00.106Z,98008.63
2022-08-27T11:30:00.913Z,98008.22
2022-08-27T11:33:04.356Z,98003.22
2022-08-27T11:36:47.629Z,98009.97
2022-08-27T11:40:15.934Z,98007.44
2022-08-27T11:43:10.273Z,97998.84
2022-08-27T11:46:03.526Z,97993.03
2022-08-27T11:49:01.244Z,97986.31
2022-08-27T11:52:01.198Z,97978.81
2022-08-27T11:54:54.113Z,97977.50
2022-08-27T11:57:45.079Z,97979.22
2022-08-27T12:00:37.918Z,97984.09
2022-08-27T12:03:32.661Z,97982.84
2022-08-27T12:06:28.238Z,97979.13
2022-08-27T12:09:24.547Z,97981.69
2022-08-27T12:12:24.459Z,97975.16
2022-08-27T12:15:27.228Z,97980.38
2022-08-27T12:18:45.825Z,97971.66
2022-08-27T12:21:52.755Z,97968.94
2022-08-27T12:24:56.320Z,97970.09
2022-08-27T12:27:59.129Z,97968.22
2022-08-27T12:30:52.768Z,97959.53
2022-08-27T12:33:46.991Z,97963.66
2022-08-27T12:36:36.597Z,97964.47
2022-08-27T12:39:31.276Z,97957.38
2022-08-27T12:42:23.661Z,97954.34
2022-08-27T12:45:22.369Z,97959.03
2022-08-27T12:48:12.037Z,97960.66
2022-08-27T12:51:05.318Z,97952.47
2022-08-27T12:54:02.443Z,97959.00
2022-08-27T12:57:03.933Z,97955.19
2022-08-27T13:00:10.659Z,97948.06
2022-08-27T13:03:32.393Z,97948.56
2022-08-27T13:06:27.824Z,97940.03
2022-08-27T13:09:17.448Z,97940.88
2022-08-27T13:12:17.461Z,97944.72
2022-08-27T13:15:11.654Z,97942.03
2022-08-27T13:18:07.625Z,97943.72
2022-08-27T13:21:05.765Z,97951.34
2022-08-27T13:24:00.498Z,97941.47
2022-08-27T13:26:54.728Z,97943.06
2022-08-27T13:29:44.884Z,97941.38
2022-08-27T13:32:38.359Z,97940.88
2022-08-27T13:35:27.662Z,97942.81
2022-08-27T13:38:19.313Z,97941.19
2022-08-27T13:41:12.175Z,97945.19
2022-08-27T13:44:12.094Z,97937.53
2022-08-27T13:47:05.038Z,97939.84
2022-08-27T13:50:05.317Z,97930.16
2022-08-27T13:53:22.791Z,97925.13
2022-08-27T13:56:12.791Z,97929.38
2022-08-27T13:59:16.046Z,97923.84
2022-08-27T14:02:55.370Z,97915.56
2022-08-27T14:05:50.101Z,97912.22
2022-08-27T14:08:40.003Z,97920.38
2022-08-27T14:11:29.834Z,97920.22
2022-08-27T14:14:19.850Z,97918.53
2022-08-27T14:18:57.948Z,97922.16
2022-08-27T14:21:24.850Z,97915.03
2022-08-27T14:24:14.036Z,97913.34
2022-08-27T14:27:11.138Z,97915.13
2022-08-27T14:30:12.973Z,97923.47
2022-08-27T14:33:03.710Z,97928.44
2022-08-27T14:35:53.045Z,97921.94
2022-08-27T14:38:49.932Z,97922.56
2022-08-27T14:41:40.034Z,97917.19
2022-08-27T14:44:29.481Z,97918.38
2022-08-27T14:47:19.072Z,97914.34
2022-08-27T14:50:12.215Z,97921.78
2022-08-27T14:53:01.578Z,97918.53
2022-08-27T14:55:52.597Z,97925.94
2022-08-27T14:58:41.992Z,97917.47
2022-08-27T15:01:31.311Z,97915.31
2022-08-27T15:04:21.999Z,97922.41
2022-08-27T15:07:11.278Z,97931.13
2022-08-27T15:10:00.903Z,97942.53
2022-08-27T15:12:51.793Z,97936.78
2022-08-27T15:15:41.360Z,97938.66
2022-08-27T15:18:30.603Z,97937.00
2022-08-27T15:21:20.310Z,97931.00
2022-08-27T15:24:18.563Z,97923.06
2022-08-27T15:27:07.764Z,97922.53
2022-08-27T15:29:58.795Z,97919.78
2022-08-27T15:32:49.684Z,97918.16
2022-08-27T15:35:38.853Z,97920.63
2022-08-27T15:38:28.238Z,97919.00
2022-08-27T15:41:17.413Z,97929.34
2022-08-27T15:44:07.451Z,97922.78
2022-08-27T15:46:58.056Z,97919.53
2022-08-27T15:49:47.449Z,97917.31
2022-08-27T15:52:40.734Z,97919.44
2022-08-27T15:55:36.205Z,97926.50
2022-08-27T15:58:29.185Z,97915.56
2022-08-27T16:01:25.537Z,97922.66
2022-08-27T16:04:17.554Z,97928.63
2022-08-27T16:07:06.816Z,97919.88
2022-08-27T16:09:56.132Z,97919.09
2022-08-27T16:12:45.756Z,97925.88
2022-08-27T16:15:40.469Z,97924.28
2022-08-27T16:18:36.319Z,97926.44
2022-08-27T16:21:27.563Z,97927.56
2022-08-27T16:24:16.830Z,97922.16
2022-08-27T16:27:06.032Z,97926.03
2022-08-27T16:29:55.218Z,97919.53
2022-08-27T16:32:48.603Z,97931.31
2022-08-27T16:35:38.829Z,97932.72
2022-08-27T16:38:29.544Z,97936.53
2022-08-27T16:41:19.050Z,97926.97
2022-08-27T16:44:08.388Z,97931.88
2022-08-27T16:46:57.579Z,97943.06
2022-08-27T16:50:04.211Z,97935.97
2022-08-27T16:52:53.431Z,97943.59
2022-08-27T16:55:46.789Z,97949.59
2022-08-27T16:58:36.535Z,97953.09
2022-08-27T17:01:26.276Z,97958.16
2022-08-27T17:04:26.315Z,97958.09
2022-08-27T17:07:21.426Z,97958.56
2022-08-27T17:10:15.250Z,97963.63
2022-08-27T17:13:06.842Z,97964.28
2022-08-27T17:15:57.826Z,97966.28
2022-08-27T17:18:48.790Z,97984.69
2022-08-27T17:21:39.187Z,97986.47
2022-08-27T17:24:28.675Z,97983.22
2022-08-27T17:27:20.332Z,97996.13
2022-08-27T17:30:12.845Z,97998.66
2022-08-27T17:33:04.850Z,97992.22
2022-08-27T17:35:54.006Z,97992.81
2022-08-27T17:38:43.818Z,97995.91
2022-08-27T17:41:38.078Z,97997.34
2022-08-27T17:44:32.339Z,97998.78
2022-08-27T17:47:25.553Z,98000.13
2022-08-27T17:50:14.848Z,97998.78
2022-08-27T17:53:03.989Z,97999.63
2022-08-27T17:55:55.310Z,98006.66
2022-08-27T17:58:44.631Z,98002.38
2022-08-27T18:01:36.685Z,98014.34
2022-08-27T18:04:27.346Z,98012.72
2022-08-27T18:07:19.374Z,98016.91
2022-08-27T18:10:11.557Z,98021.78
2022-08-27T18:13:01.156Z,98022.41
2022-08-27T18:15:51.684Z,98021.59
2022-08-27T18:18:41.300Z,98026.22
2022-08-27T18:21:32.511Z,98023.91
2022-08-27T18:24:21.756Z,98036.72
2022-08-27T18:27:11.187Z,98043.78
2022-08-27T18:30:02.018Z,98043.81
2022-08-27T18:32:51.355Z,98053.34
2022-08-27T18:35:42.626Z,98057.44
2022-08-27T18:38:33.659Z,98062.16
2022-08-27T18:41:24.337Z,98069.78
2022-08-27T18:44:17.332Z,98072.59
2022-08-27T18:47:07.666Z,98074.81
2022-08-27T18:49:57.202Z,98083.00
2022-08-27T18:52:48.483Z,98092.25
2022-08-27T18:55:39.123Z,98096.13
2022-08-27T18:58:29.139Z,98098.09
2022-08-27T19:01:25.640Z,98103.38
2022-08-27T19:04:16.483Z,98108.88
2022-08-27T19:07:06.435Z,98105.81
2022-08-27T19:09:55.701Z,98102.94
2022-08-27T19:12:46.911Z,98114.22
2022-08-27T19:15:36.285Z,98113.25
2022-08-27T19:18:28.652Z,98105.84
2022-08-27T19:21:17.968Z,98116.03
2022-08-27T19:24:11.381Z,98125.66
2022-08-27T19:27:00.655Z,98120.13
2022-08-27T19:29:51.808Z,98128.69
2022-08-27T19:32:41.031Z,98133.28
2022-08-27T19:35:30.304Z,98130.78
2022-08-27T19:38:19.587Z,98134.22
2022-08-27T19:41:08.796Z,98143.78
2022-08-27T19:43:58.245Z,98138.84
2022-08-27T19:46:52.162Z,98146.34
2022-08-27T19:49:41.988Z,98146.81
2022-08-27T19:52:31.230Z,98145.38
2022-08-27T19:55:21.321Z,98145.81
2022-08-27T19:58:10.624Z,98149.34
2022-08-27T20:00:59.993Z,98157.88
2022-08-27T20:03:50.792Z,98149.41
2022-08-27T20:06:41.126Z,98148.81
2022-08-27T20:09:32.896Z,98152.78
2022-08-27T20:12:22.810Z,98146.41
2022-08-27T20:15:13.943Z,98148.28
2022-08-27T20:18:06.503Z,98144.94
2022-08-27T20:20:57.429Z,98143.53
2022-08-27T20:23:47.393Z,98147.50
2022-08-27T20:26:36.987Z,98135.88
2022-08-27T20:29:32.519Z,98139.41
2022-08-27T20:32:27.945Z,98143.75
2022-08-27T20:35:22.842Z,98157.91
2022-08-27T20:38:15.921Z,98147.78
2022-08-27T20:41:11.051Z,98143.81
2022-08-27T20:44:00.326Z,98133.00
2022-08-27T20:46:52.106Z,98133.22
2022-08-27T20:49:44.566Z,98127.81
2022-08-27T20:52:38.236Z,98139.69
2022-08-27T20:55:29.928Z,98139.69
2022-08-27T20:59:11.003Z,98144.94
2022-08-27T21:02:13.754Z,98139.97
2022-08-27T21:05:19.042Z,98151.00
2022-08-27T21:08:11.157Z,98154.94
2022-08-27T21:11:01.878Z,98153.72
2022-08-27T21:13:56.247Z,98156.88
2022-08-27T21:16:46.031Z,98152.97
2022-08-27T21:19:35.532Z,98161.06
2022-08-27T21:22:26.163Z,98154.44
2022-08-27T21:25:16.252Z,98164.16
2022-08-27T21:28:07.551Z,98159.22
2022-08-27T21:30:56.820Z,98161.06
2022-08-27T21:33:45.943Z,98167.75
2022-08-27T21:36:37.367Z,98164.41
2022-08-27T21:39:28.568Z,98164.41
2022-08-27T21:42:18.277Z,98173.56
2022-08-27T21:45:10.004Z,98179.41
2022-08-27T21:47:59.217Z,98169.03
2022-08-27T21:50:52.934Z,98173.41
2022-08-27T21:53:43.125Z,98170.94
2022-08-27T21:56:33.642Z,98180.28
2022-08-27T21:59:22.886Z,98177.78
2022-08-27T22:02:38.133Z,98179.91
2022-08-27T22:05:24.703Z,98177.84
2022-08-27T22:08:16.912Z,98180.75
2022-08-27T22:11:09.755Z,98177.22
2022-08-27T22:13:59.909Z,98175.59
2022-08-27T22:16:49.282Z,98190.34
2022-08-27T22:19:40.008Z,98189.94
2022-08-27T22:22:30.631Z,98181.22
2022-08-27T22:25:20.504Z,98180.63
2022-08-27T22:28:13.332Z,98183.75
2022-08-27T22:31:02.841Z,98184.19
2022-08-27T22:33:52.599Z,98182.97
2022-08-27T22:36:47.698Z,98179.66
2022-08-27T22:39:37.656Z,98184.22
2022-08-27T22:42:27.125Z,98180.31
2022-08-27T22:45:17.858Z,98182.16
2022-08-27T22:48:07.097Z,98178.66
2022-08-27T22:50:56.220Z,98179.28
2022-08-27T22:53:47.038Z,98175.97
2022-08-27T22:56:37.019Z,98180.78
2022-08-27T22:59:26.365Z,98173.94
2022-08-27T23:02:15.973Z,98175.81
2022-08-27T23:05:06.782Z,98176.25
2022-08-27T23:07:56.477Z,98179.97
2022-08-27T23:10:47.001Z,98177.69
2022-08-27T23:13:36.353Z,98174.41
2022-08-27T23:16:31.655Z,98185.59
2022-08-27T23:19:22.497Z,98174.41
2022-08-27T23:22:15.054Z,98180.19
2022-08-27T23:25:22.527Z,98174.84
2022-08-27T23:28:17.107Z,98179.19
2022-08-27T23:31:06.975Z,98176.91
2022-08-27T23:33:57.214Z,98174.66
2022-08-27T23:36:46.432Z,98182.13
2022-08-27T23:39:35.678Z,98186.06
2022-08-27T23:42:25.425Z,98183.56
2022-08-27T23:45:19.219Z,98180.28
2022-08-27T23:48:09.042Z,98187.75
2022-08-27T23:50:58.239Z,98191.47
2022-08-27T23:53:47.915Z,98186.53
2022-08-27T23:56:37.113Z,98189.00
2022-08-27T23:59:30.302Z,98186.31
